sensor_id;sensor_type;location;lat;lon;timestamp;P1;durP1;ratioP1;P2;durP2;ratioP2
84486;SDS011;74710;48.436;10.602;2024-02-26T00:01:54;1.38;;;0.80;;
84486;SDS011;74710;48.436;10.602;2024-02-26T00:04:21;3.53;;;1.13;;
84486;SDS011;74710;48.436;10.602;2024-02-26T00:06:48;2.53;;;0.82;;
84486;SDS011;74710;48.436;10.602;2024-02-26T00:09:18;2.88;;;1.02;;
84486;SDS011;74710;48.436;10.602;2024-02-26T00:14:44;3.78;;;1.70;;
84486;SDS011;74710;48.436;10.602;2024-02-26T00:17:13;2.85;;;1.13;;
84486;SDS011;74710;48.436;10.602;2024-02-26T00:19:39;3.75;;;1.13;;
84486;SDS011;74710;48.436;10.602;2024-02-26T00:22:06;4.45;;;1.20;;
84486;SDS011;74710;48.436;10.602;2024-02-26T00:24:33;3.13;;;1.30;;
84486;SDS011;74710;48.436;10.602;2024-02-26T00:26:59;3.63;;;1.65;;
84486;SDS011;74710;48.436;10.602;2024-02-26T00:29:27;2.55;;;1.10;;
84486;SDS011;74710;48.436;10.602;2024-02-26T00:31:54;3.33;;;0.90;;
84486;SDS011;74710;48.436;10.602;2024-02-26T00:34:20;2.28;;;0.82;;
84486;SDS011;74710;48.436;10.602;2024-02-26T00:36:47;3.70;;;1.42;;
84486;SDS011;74710;48.436;10.602;2024-02-26T00:39:14;3.47;;;1.52;;
84486;SDS011;74710;48.436;10.602;2024-02-26T00:41:40;3.15;;;0.80;;
84486;SDS011;74710;48.436;10.602;2024-02-26T00:44:07;2.75;;;1.20;;
84486;SDS011;74710;48.436;10.602;2024-02-26T00:46:34;1.98;;;1.08;;
84486;SDS011;74710;48.436;10.602;2024-02-26T00:49:01;4.90;;;1.80;;
84486;SDS011;74710;48.436;10.602;2024-02-26T00:51:28;3.17;;;1.17;;
84486;SDS011;74710;48.436;10.602;2024-02-26T00:53:55;4.15;;;1.15;;
84486;SDS011;74710;48.436;10.602;2024-02-26T00:56:22;2.45;;;1.10;;
84486;SDS011;74710;48.436;10.602;2024-02-26T00:58:48;2.80;;;1.13;;
84486;SDS011;74710;48.436;10.602;2024-02-26T01:01:15;6.75;;;1.40;;
84486;SDS011;74710;48.436;10.602;2024-02-26T01:03:41;4.05;;;1.20;;
84486;SDS011;74710;48.436;10.602;2024-02-26T01:06:08;2.70;;;1.10;;
84486;SDS011;74710;48.436;10.602;2024-02-26T01:08:36;2.13;;;1.10;;
84486;SDS011;74710;48.436;10.602;2024-02-26T01:11:04;3.25;;;1.38;;
84486;SDS011;74710;48.436;10.602;2024-02-26T01:13:30;2.53;;;1.15;;
84486;SDS011;74710;48.436;10.602;2024-02-26T01:15:57;4.18;;;1.63;;
84486;SDS011;74710;48.436;10.602;2024-02-26T01:18:23;2.08;;;0.80;;
84486;SDS011;74710;48.436;10.602;2024-02-26T01:20:51;2.67;;;1.13;;
84486;SDS011;74710;48.436;10.602;2024-02-26T01:23:20;2.90;;;1.45;;
84486;SDS011;74710;48.436;10.602;2024-02-26T01:25:50;2.20;;;0.73;;
84486;SDS011;74710;48.436;10.602;2024-02-26T01:28:18;3.13;;;1.10;;
84486;SDS011;74710;48.436;10.602;2024-02-26T01:30:44;4.25;;;1.25;;
84486;SDS011;74710;48.436;10.602;2024-02-26T01:33:11;4.43;;;1.75;;
84486;SDS011;74710;48.436;10.602;2024-02-26T01:35:38;4.45;;;1.73;;
84486;SDS011;74710;48.436;10.602;2024-02-26T01:38:05;4.28;;;1.40;;
84486;SDS011;74710;48.436;10.602;2024-02-26T01:40:32;2.92;;;1.25;;
84486;SDS011;74710;48.436;10.602;2024-02-26T01:42:59;2.95;;;1.17;;
84486;SDS011;74710;48.436;10.602;2024-02-26T01:45:25;4.32;;;1.60;;
84486;SDS011;74710;48.436;10.602;2024-02-26T01:47:52;5.07;;;1.55;;
84486;SDS011;74710;48.436;10.602;2024-02-26T01:50:20;5.07;;;1.70;;
84486;SDS011;74710;48.436;10.602;2024-02-26T01:52:49;3.63;;;1.63;;
84486;SDS011;74710;48.436;10.602;2024-02-26T01:55:16;4.57;;;1.77;;
84486;SDS011;74710;48.436;10.602;2024-02-26T01:57:43;3.17;;;1.67;;
84486;SDS011;74710;48.436;10.602;2024-02-26T02:00:13;4.30;;;1.42;;
84486;SDS011;74710;48.436;10.602;2024-02-26T02:02:41;4.97;;;2.17;;
84486;SDS011;74710;48.436;10.602;2024-02-26T02:05:08;4.00;;;1.65;;
84486;SDS011;74710;48.436;10.602;2024-02-26T02:07:36;7.63;;;1.55;;
84486;SDS011;74710;48.436;10.602;2024-02-26T02:10:03;5.10;;;2.45;;
84486;SDS011;74710;48.436;10.602;2024-02-26T02:12:30;2.85;;;1.40;;
84486;SDS011;74710;48.436;10.602;2024-02-26T02:14:59;3.28;;;1.48;;
84486;SDS011;74710;48.436;10.602;2024-02-26T02:20:35;4.20;;;1.20;;
84486;SDS011;74710;48.436;10.602;2024-02-26T02:23:02;2.17;;;1.13;;
84486;SDS011;74710;48.436;10.602;2024-02-26T02:25:28;3.22;;;1.38;;
84486;SDS011;74710;48.436;10.602;2024-02-26T02:27:55;2.55;;;1.08;;
84486;SDS011;74710;48.436;10.602;2024-02-26T02:30:24;2.03;;;0.98;;
84486;SDS011;74710;48.436;10.602;2024-02-26T02:32:51;3.58;;;1.48;;
84486;SDS011;74710;48.436;10.602;2024-02-26T02:35:18;3.78;;;1.60;;
84486;SDS011;74710;48.436;10.602;2024-02-26T02:37:44;3.42;;;1.30;;
84486;SDS011;74710;48.436;10.602;2024-02-26T02:40:11;4.45;;;1.65;;
84486;SDS011;74710;48.436;10.602;2024-02-26T02:42:37;3.22;;;1.35;;
84486;SDS011;74710;48.436;10.602;2024-02-26T02:45:07;4.03;;;1.70;;
84486;SDS011;74710;48.436;10.602;2024-02-26T02:47:37;3.30;;;1.92;;
84486;SDS011;74710;48.436;10.602;2024-02-26T02:50:04;4.53;;;1.45;;
84486;SDS011;74710;48.436;10.602;2024-02-26T02:52:34;3.53;;;1.40;;
84486;SDS011;74710;48.436;10.602;2024-02-26T02:55:01;3.53;;;1.70;;
84486;SDS011;74710;48.436;10.602;2024-02-26T02:57:28;3.00;;;1.33;;
84486;SDS011;74710;48.436;10.602;2024-02-26T02:59:56;3.80;;;1.95;;
84486;SDS011;74710;48.436;10.602;2024-02-26T03:02:22;5.45;;;2.15;;
84486;SDS011;74710;48.436;10.602;2024-02-26T03:04:51;4.70;;;1.90;;
84486;SDS011;74710;48.436;10.602;2024-02-26T03:07:18;8.52;;;1.60;;
84486;SDS011;74710;48.436;10.602;2024-02-26T03:09:44;3.75;;;1.80;;
84486;SDS011;74710;48.436;10.602;2024-02-26T03:12:11;5.07;;;2.38;;
84486;SDS011;74710;48.436;10.602;2024-02-26T03:14:38;3.97;;;2.00;;
84486;SDS011;74710;48.436;10.602;2024-02-26T03:17:04;3.75;;;1.70;;
84486;SDS011;74710;48.436;10.602;2024-02-26T03:19:31;3.22;;;1.52;;
84486;SDS011;74710;48.436;10.602;2024-02-26T03:21:59;3.40;;;1.60;;
84486;SDS011;74710;48.436;10.602;2024-02-26T03:24:26;4.82;;;1.80;;
84486;SDS011;74710;48.436;10.602;2024-02-26T03:26:52;5.30;;;1.88;;
84486;SDS011;74710;48.436;10.602;2024-02-26T03:29:19;5.30;;;2.08;;
84486;SDS011;74710;48.436;10.602;2024-02-26T03:31:46;2.92;;;1.40;;
84486;SDS011;74710;48.436;10.602;2024-02-26T03:34:12;4.53;;;1.45;;
84486;SDS011;74710;48.436;10.602;2024-02-26T03:36:41;3.08;;;1.50;;
84486;SDS011;74710;48.436;10.602;2024-02-26T03:39:08;2.65;;;1.25;;
84486;SDS011;74710;48.436;10.602;2024-02-26T03:41:35;3.28;;;1.40;;
84486;SDS011;74710;48.436;10.602;2024-02-26T03:49:28;2.65;;;1.45;;
84486;SDS011;74710;48.436;10.602;2024-02-26T03:51:54;2.22;;;1.23;;
84486;SDS011;74710;48.436;10.602;2024-02-26T03:54:21;4.15;;;1.42;;
84486;SDS011;74710;48.436;10.602;2024-02-26T03:56:48;3.83;;;1.98;;
84486;SDS011;74710;48.436;10.602;2024-02-26T03:59:15;5.75;;;2.33;;
84486;SDS011;74710;48.436;10.602;2024-02-26T04:01:45;6.40;;;2.53;;
84486;SDS011;74710;48.436;10.602;2024-02-26T04:04:12;6.10;;;1.95;;
84486;SDS011;74710;48.436;10.602;2024-02-26T04:06:39;4.97;;;2.05;;
84486;SDS011;74710;48.436;10.602;2024-02-26T04:09:05;6.10;;;2.20;;
84486;SDS011;74710;48.436;10.602;2024-02-26T04:11:32;5.40;;;2.55;;
84486;SDS011;74710;48.436;10.602;2024-02-26T04:13:59;5.07;;;2.90;;
84486;SDS011;74710;48.436;10.602;2024-02-26T04:16:26;4.60;;;2.33;;
84486;SDS011;74710;48.436;10.602;2024-02-26T04:18:52;5.65;;;2.88;;
84486;SDS011;74710;48.436;10.602;2024-02-26T04:21:20;6.65;;;2.65;;
84486;SDS011;74710;48.436;10.602;2024-02-26T04:23:46;6.05;;;2.85;;
84486;SDS011;74710;48.436;10.602;2024-02-26T04:26:15;5.13;;;2.40;;
84486;SDS011;74710;48.436;10.602;2024-02-26T04:28:42;5.93;;;2.45;;
84486;SDS011;74710;48.436;10.602;2024-02-26T04:31:11;6.55;;;2.70;;
84486;SDS011;74710;48.436;10.602;2024-02-26T04:33:38;4.32;;;2.30;;
84486;SDS011;74710;48.436;10.602;2024-02-26T04:36:04;4.72;;;2.40;;
84486;SDS011;74710;48.436;10.602;2024-02-26T04:38:34;6.32;;;2.47;;
84486;SDS011;74710;48.436;10.602;2024-02-26T04:44:30;4.78;;;2.20;;
84486;SDS011;74710;48.436;10.602;2024-02-26T04:46:56;5.40;;;2.13;;
84486;SDS011;74710;48.436;10.602;2024-02-26T04:49:23;6.07;;;2.10;;
84486;SDS011;74710;48.436;10.602;2024-02-26T04:51:50;10.35;;;3.53;;
84486;SDS011;74710;48.436;10.602;2024-02-26T04:54:16;9.63;;;4.03;;
84486;SDS011;74710;48.436;10.602;2024-02-26T04:56:43;17.02;;;7.07;;
84486;SDS011;74710;48.436;10.602;2024-02-26T04:59:15;12.18;;;4.80;;
84486;SDS011;74710;48.436;10.602;2024-02-26T05:01:42;10.85;;;4.18;;
84486;SDS011;74710;48.436;10.602;2024-02-26T05:04:08;20.25;;;7.10;;
84486;SDS011;74710;48.436;10.602;2024-02-26T05:06:36;5.15;;;2.92;;
84486;SDS011;74710;48.436;10.602;2024-02-26T05:09:03;7.13;;;3.20;;
84486;SDS011;74710;48.436;10.602;2024-02-26T05:11:30;11.88;;;3.47;;
84486;SDS011;74710;48.436;10.602;2024-02-26T05:13:57;10.85;;;3.72;;
84486;SDS011;74710;48.436;10.602;2024-02-26T05:16:24;9.93;;;3.28;;
84486;SDS011;74710;48.436;10.602;2024-02-26T05:18:53;9.27;;;3.83;;
84486;SDS011;74710;48.436;10.602;2024-02-26T05:21:19;8.32;;;3.30;;
84486;SDS011;74710;48.436;10.602;2024-02-26T05:23:46;7.78;;;4.15;;
84486;SDS011;74710;48.436;10.602;2024-02-26T05:26:19;29.17;;;19.67;;
84486;SDS011;74710;48.436;10.602;2024-02-26T05:28:45;17.60;;;11.20;;
84486;SDS011;74710;48.436;10.602;2024-02-26T05:31:15;7.65;;;4.18;;
84486;SDS011;74710;48.436;10.602;2024-02-26T05:33:42;8.82;;;3.90;;
84486;SDS011;74710;48.436;10.602;2024-02-26T05:36:09;7.78;;;3.70;;
84486;SDS011;74710;48.436;10.602;2024-02-26T05:38:35;7.60;;;3.50;;
84486;SDS011;74710;48.436;10.602;2024-02-26T05:41:02;10.88;;;4.60;;
84486;SDS011;74710;48.436;10.602;2024-02-26T05:43:32;6.95;;;3.85;;
84486;SDS011;74710;48.436;10.602;2024-02-26T05:45:59;9.13;;;4.07;;
84486;SDS011;74710;48.436;10.602;2024-02-26T05:48:26;9.60;;;3.83;;
84486;SDS011;74710;48.436;10.602;2024-02-26T05:50:52;7.15;;;3.63;;
84486;SDS011;74710;48.436;10.602;2024-02-26T05:53:19;7.70;;;3.42;;
84486;SDS011;74710;48.436;10.602;2024-02-26T05:55:46;9.75;;;3.97;;
84486;SDS011;74710;48.436;10.602;2024-02-26T05:58:12;6.97;;;3.35;;
84486;SDS011;74710;48.436;10.602;2024-02-26T06:00:40;12.50;;;3.63;;
84486;SDS011;74710;48.436;10.602;2024-02-26T06:03:07;10.90;;;4.97;;
84486;SDS011;74710;48.436;10.602;2024-02-26T06:05:34;8.60;;;3.88;;
84486;SDS011;74710;48.436;10.602;2024-02-26T06:08:00;10.80;;;3.97;;
84486;SDS011;74710;48.436;10.602;2024-02-26T06:10:27;9.05;;;3.63;;
84486;SDS011;74710;48.436;10.602;2024-02-26T06:12:53;8.85;;;3.83;;
84486;SDS011;74710;48.436;10.602;2024-02-26T06:15:20;8.07;;;3.97;;
84486;SDS011;74710;48.436;10.602;2024-02-26T06:17:47;9.63;;;3.80;;
84486;SDS011;74710;48.436;10.602;2024-02-26T06:20:13;9.52;;;3.92;;
84486;SDS011;74710;48.436;10.602;2024-02-26T06:22:40;12.27;;;4.55;;
84486;SDS011;74710;48.436;10.602;2024-02-26T06:25:07;7.97;;;3.55;;
84486;SDS011;74710;48.436;10.602;2024-02-26T06:27:34;9.70;;;4.47;;
84486;SDS011;74710;48.436;10.602;2024-02-26T06:30:01;9.63;;;3.88;;
84486;SDS011;74710;48.436;10.602;2024-02-26T06:32:28;8.98;;;3.97;;
84486;SDS011;74710;48.436;10.602;2024-02-26T06:34:55;9.38;;;3.35;;
84486;SDS011;74710;48.436;10.602;2024-02-26T06:37:23;8.00;;;3.50;;
84486;SDS011;74710;48.436;10.602;2024-02-26T06:39:49;7.85;;;3.58;;
84486;SDS011;74710;48.436;10.602;2024-02-26T06:42:18;8.68;;;3.60;;
84486;SDS011;74710;48.436;10.602;2024-02-26T06:44:45;8.20;;;2.63;;
84486;SDS011;74710;48.436;10.602;2024-02-26T06:47:15;8.43;;;3.63;;
84486;SDS011;74710;48.436;10.602;2024-02-26T06:49:41;9.30;;;3.40;;
84486;SDS011;74710;48.436;10.602;2024-02-26T06:52:08;8.07;;;3.92;;
84486;SDS011;74710;48.436;10.602;2024-02-26T06:54:35;9.02;;;4.10;;
84486;SDS011;74710;48.436;10.602;2024-02-26T06:57:02;9.50;;;4.03;;
84486;SDS011;74710;48.436;10.602;2024-02-26T06:59:28;8.10;;;3.72;;
84486;SDS011;74710;48.436;10.602;2024-02-26T07:01:55;8.82;;;3.85;;
84486;SDS011;74710;48.436;10.602;2024-02-26T07:04:22;10.65;;;3.78;;
84486;SDS011;74710;48.436;10.602;2024-02-26T07:06:49;9.32;;;3.42;;
84486;SDS011;74710;48.436;10.602;2024-02-26T07:09:16;7.65;;;3.45;;
84486;SDS011;74710;48.436;10.602;2024-02-26T07:11:42;6.88;;;3.45;;
84486;SDS011;74710;48.436;10.602;2024-02-26T07:14:10;27.63;;;7.85;;
84486;SDS011;74710;48.436;10.602;2024-02-26T07:16:37;35.60;;;10.45;;
84486;SDS011;74710;48.436;10.602;2024-02-26T07:19:03;24.55;;;7.78;;
84486;SDS011;74710;48.436;10.602;2024-02-26T07:21:30;18.20;;;5.20;;
84486;SDS011;74710;48.436;10.602;2024-02-26T07:23:57;9.38;;;3.33;;
84486;SDS011;74710;48.436;10.602;2024-02-26T07:26:24;7.57;;;3.75;;
84486;SDS011;74710;48.436;10.602;2024-02-26T07:28:52;8.63;;;3.42;;
84486;SDS011;74710;48.436;10.602;2024-02-26T07:31:19;6.68;;;3.65;;
84486;SDS011;74710;48.436;10.602;2024-02-26T07:33:45;9.38;;;3.60;;
84486;SDS011;74710;48.436;10.602;2024-02-26T07:36:12;8.60;;;3.53;;
84486;SDS011;74710;48.436;10.602;2024-02-26T07:38:39;11.57;;;3.58;;
84486;SDS011;74710;48.436;10.602;2024-02-26T07:41:09;9.63;;;4.22;;
84486;SDS011;74710;48.436;10.602;2024-02-26T07:43:36;8.52;;;3.47;;
84486;SDS011;74710;48.436;10.602;2024-02-26T07:46:03;9.75;;;3.83;;
84486;SDS011;74710;48.436;10.602;2024-02-26T07:48:30;8.73;;;3.72;;
84486;SDS011;74710;48.436;10.602;2024-02-26T07:50:57;9.35;;;4.47;;
84486;SDS011;74710;48.436;10.602;2024-02-26T07:53:25;8.60;;;3.72;;
84486;SDS011;74710;48.436;10.602;2024-02-26T07:55:52;9.00;;;3.63;;
84486;SDS011;74710;48.436;10.602;2024-02-26T07:58:19;8.43;;;3.65;;
84486;SDS011;74710;48.436;10.602;2024-02-26T08:00:45;11.85;;;4.72;;
84486;SDS011;74710;48.436;10.602;2024-02-26T08:03:13;8.95;;;3.92;;
84486;SDS011;74710;48.436;10.602;2024-02-26T08:05:42;7.45;;;3.42;;
84486;SDS011;74710;48.436;10.602;2024-02-26T08:11:10;5.78;;;2.45;;
84486;SDS011;74710;48.436;10.602;2024-02-26T08:13:39;5.32;;;2.72;;
84486;SDS011;74710;48.436;10.602;2024-02-26T08:16:06;5.43;;;2.80;;
84486;SDS011;74710;48.436;10.602;2024-02-26T08:18:33;7.00;;;3.22;;
84486;SDS011;74710;48.436;10.602;2024-02-26T08:20:59;6.75;;;2.92;;
84486;SDS011;74710;48.436;10.602;2024-02-26T08:23:26;6.50;;;3.28;;
84486;SDS011;74710;48.436;10.602;2024-02-26T08:25:53;7.90;;;3.25;;
84486;SDS011;74710;48.436;10.602;2024-02-26T08:28:20;7.90;;;3.17;;
84486;SDS011;74710;48.436;10.602;2024-02-26T08:30:46;7.40;;;3.00;;
84486;SDS011;74710;48.436;10.602;2024-02-26T08:33:13;7.40;;;3.42;;
84486;SDS011;74710;48.436;10.602;2024-02-26T08:35:40;5.70;;;2.85;;
84486;SDS011;74710;48.436;10.602;2024-02-26T08:38:07;7.38;;;3.47;;
84486;SDS011;74710;48.436;10.602;2024-02-26T08:40:36;8.05;;;3.45;;
84486;SDS011;74710;48.436;10.602;2024-02-26T08:43:03;9.48;;;3.65;;
84486;SDS011;74710;48.436;10.602;2024-02-26T08:45:29;6.75;;;3.20;;
84486;SDS011;74710;48.436;10.602;2024-02-26T08:47:56;6.63;;;2.80;;
84486;SDS011;74710;48.436;10.602;2024-02-26T08:50:23;8.80;;;2.80;;
84486;SDS011;74710;48.436;10.602;2024-02-26T08:52:49;5.82;;;2.88;;
84486;SDS011;74710;48.436;10.602;2024-02-26T08:55:17;5.05;;;2.30;;
84486;SDS011;74710;48.436;10.602;2024-02-26T08:57:44;5.65;;;2.90;;
84486;SDS011;74710;48.436;10.602;2024-02-26T09:00:11;5.47;;;2.60;;
84486;SDS011;74710;48.436;10.602;2024-02-26T09:02:43;8.73;;;2.63;;
84486;SDS011;74710;48.436;10.602;2024-02-26T09:05:12;6.22;;;2.75;;
84486;SDS011;74710;48.436;10.602;2024-02-26T09:07:39;10.52;;;2.47;;
84486;SDS011;74710;48.436;10.602;2024-02-26T09:10:05;5.78;;;2.22;;
84486;SDS011;74710;48.436;10.602;2024-02-26T09:12:34;4.75;;;2.30;;
84486;SDS011;74710;48.436;10.602;2024-02-26T09:15:01;6.45;;;2.50;;
84486;SDS011;74710;48.436;10.602;2024-02-26T09:17:30;5.22;;;2.67;;
84486;SDS011;74710;48.436;10.602;2024-02-26T09:20:02;5.72;;;2.40;;
84486;SDS011;74710;48.436;10.602;2024-02-26T09:22:29;5.97;;;2.30;;
84486;SDS011;74710;48.436;10.602;2024-02-26T09:28:03;7.25;;;3.00;;
84486;SDS011;74710;48.436;10.602;2024-02-26T09:30:30;7.05;;;3.25;;
84486;SDS011;74710;48.436;10.602;2024-02-26T09:32:56;7.28;;;3.33;;
84486;SDS011;74710;48.436;10.602;2024-02-26T09:35:23;7.63;;;3.42;;
84486;SDS011;74710;48.436;10.602;2024-02-26T09:37:50;8.40;;;4.22;;
84486;SDS011;74710;48.436;10.602;2024-02-26T09:40:17;7.22;;;3.17;;
84486;SDS011;74710;48.436;10.602;2024-02-26T09:42:44;8.32;;;3.70;;
84486;SDS011;74710;48.436;10.602;2024-02-26T09:45:17;6.35;;;2.95;;
84486;SDS011;74710;48.436;10.602;2024-02-26T09:47:45;6.57;;;3.28;;
84486;SDS011;74710;48.436;10.602;2024-02-26T09:50:12;8.80;;;3.60;;
84486;SDS011;74710;48.436;10.602;2024-02-26T09:52:41;7.43;;;3.60;;
84486;SDS011;74710;48.436;10.602;2024-02-26T09:55:08;7.57;;;3.80;;
84486;SDS011;74710;48.436;10.602;2024-02-26T09:57:36;8.48;;;4.10;;
84486;SDS011;74710;48.436;10.602;2024-02-26T10:00:03;8.88;;;4.30;;
84486;SDS011;74710;48.436;10.602;2024-02-26T10:02:34;7.28;;;2.97;;
84486;SDS011;74710;48.436;10.602;2024-02-26T10:05:02;6.88;;;3.15;;
84486;SDS011;74710;48.436;10.602;2024-02-26T10:07:31;7.18;;;4.13;;
84486;SDS011;74710;48.436;10.602;2024-02-26T10:10:05;9.52;;;3.88;;
84486;SDS011;74710;48.436;10.602;2024-02-26T10:15:27;8.00;;;3.13;;
84486;SDS011;74710;48.436;10.602;2024-02-26T10:18:00;9.35;;;4.00;;
84486;SDS011;74710;48.436;10.602;2024-02-26T10:20:30;15.68;;;4.22;;
84486;SDS011;74710;48.436;10.602;2024-02-26T10:22:58;7.75;;;3.20;;
84486;SDS011;74710;48.436;10.602;2024-02-26T10:25:25;9.70;;;3.35;;
84486;SDS011;74710;48.436;10.602;2024-02-26T10:27:55;6.65;;;3.50;;
84486;SDS011;74710;48.436;10.602;2024-02-26T10:30:23;7.32;;;3.17;;
84486;SDS011;74710;48.436;10.602;2024-02-26T10:32:52;8.00;;;3.17;;
84486;SDS011;74710;48.436;10.602;2024-02-26T10:35:19;9.93;;;4.00;;
84486;SDS011;74710;48.436;10.602;2024-02-26T10:38:08;8.57;;;3.80;;
84486;SDS011;74710;48.436;10.602;2024-02-26T10:43:54;7.80;;;3.85;;
84486;SDS011;74710;48.436;10.602;2024-02-26T10:46:21;7.30;;;3.78;;
84486;SDS011;74710;48.436;10.602;2024-02-26T10:48:51;9.00;;;4.13;;
84486;SDS011;74710;48.436;10.602;2024-02-26T10:51:24;8.38;;;3.60;;
84486;SDS011;74710;48.436;10.602;2024-02-26T10:53:54;7.55;;;2.83;;
84486;SDS011;74710;48.436;10.602;2024-02-26T10:56:27;6.18;;;3.67;;
84486;SDS011;74710;48.436;10.602;2024-02-26T10:58:58;5.63;;;2.75;;
84486;SDS011;74710;48.436;10.602;2024-02-26T11:01:26;9.20;;;4.25;;
84486;SDS011;74710;48.436;10.602;2024-02-26T11:03:53;8.95;;;3.97;;
84486;SDS011;74710;48.436;10.602;2024-02-26T11:06:21;9.60;;;3.65;;
84486;SDS011;74710;48.436;10.602;2024-02-26T11:08:51;9.13;;;3.95;;
84486;SDS011;74710;48.436;10.602;2024-02-26T11:11:20;7.93;;;3.75;;
84486;SDS011;74710;48.436;10.602;2024-02-26T11:13:48;9.57;;;3.63;;
84486;SDS011;74710;48.436;10.602;2024-02-26T11:16:18;5.65;;;3.13;;
84486;SDS011;74710;48.436;10.602;2024-02-26T11:18:46;3.88;;;2.50;;
84486;SDS011;74710;48.436;10.602;2024-02-26T11:21:15;7.18;;;3.15;;
84486;SDS011;74710;48.436;10.602;2024-02-26T11:23:47;5.53;;;3.22;;
84486;SDS011;74710;48.436;10.602;2024-02-26T11:26:15;5.65;;;3.40;;
84486;SDS011;74710;48.436;10.602;2024-02-26T11:28:42;5.80;;;3.15;;
84486;SDS011;74710;48.436;10.602;2024-02-26T11:31:12;7.25;;;3.10;;
84486;SDS011;74710;48.436;10.602;2024-02-26T11:33:39;7.57;;;3.58;;
84486;SDS011;74710;48.436;10.602;2024-02-26T11:36:09;7.45;;;4.35;;
84486;SDS011;74710;48.436;10.602;2024-02-26T11:38:36;11.27;;;4.18;;
84486;SDS011;74710;48.436;10.602;2024-02-26T11:41:06;8.63;;;4.38;;
84486;SDS011;74710;48.436;10.602;2024-02-26T11:43:49;7.22;;;3.67;;
84486;SDS011;74710;48.436;10.602;2024-02-26T11:46:30;7.93;;;3.97;;
84486;SDS011;74710;48.436;10.602;2024-02-26T11:51:33;4.70;;;2.25;;
84486;SDS011;74710;48.436;10.602;2024-02-26T11:54:01;4.55;;;2.58;;
84486;SDS011;74710;48.436;10.602;2024-02-26T11:56:27;4.65;;;2.00;;
84486;SDS011;74710;48.436;10.602;2024-02-26T12:02:08;3.47;;;1.85;;
84486;SDS011;74710;48.436;10.602;2024-02-26T12:04:35;5.05;;;2.03;;
84486;SDS011;74710;48.436;10.602;2024-02-26T12:07:05;3.60;;;1.60;;
84486;SDS011;74710;48.436;10.602;2024-02-26T12:12:32;3.20;;;1.60;;
84486;SDS011;74710;48.436;10.602;2024-02-26T12:14:58;3.78;;;1.60;;
84486;SDS011;74710;48.436;10.602;2024-02-26T12:17:26;3.75;;;1.80;;
84486;SDS011;74710;48.436;10.602;2024-02-26T12:19:52;4.20;;;1.63;;
84486;SDS011;74710;48.436;10.602;2024-02-26T12:22:20;2.95;;;1.30;;
84486;SDS011;74710;48.436;10.602;2024-02-26T12:24:47;2.08;;;1.23;;
84486;SDS011;74710;48.436;10.602;2024-02-26T12:27:13;4.72;;;1.65;;
84486;SDS011;74710;48.436;10.602;2024-02-26T12:29:41;4.30;;;1.73;;
84486;SDS011;74710;48.436;10.602;2024-02-26T12:32:08;4.25;;;1.60;;
84486;SDS011;74710;48.436;10.602;2024-02-26T12:34:37;3.47;;;1.58;;
84486;SDS011;74710;48.436;10.602;2024-02-26T12:37:04;3.67;;;1.40;;
84486;SDS011;74710;48.436;10.602;2024-02-26T12:39:35;3.42;;;0.93;;
84486;SDS011;74710;48.436;10.602;2024-02-26T12:42:03;2.97;;;1.23;;
84486;SDS011;74710;48.436;10.602;2024-02-26T12:44:30;2.97;;;1.30;;
84486;SDS011;74710;48.436;10.602;2024-02-26T12:47:00;2.58;;;0.95;;
84486;SDS011;74710;48.436;10.602;2024-02-26T12:49:29;1.58;;;0.55;;
84486;SDS011;74710;48.436;10.602;2024-02-26T12:51:57;2.55;;;0.73;;
84486;SDS011;74710;48.436;10.602;2024-02-26T12:54:41;1.60;;;0.77;;
84486;SDS011;74710;48.436;10.602;2024-02-26T12:57:09;2.83;;;1.15;;
84486;SDS011;74710;48.436;10.602;2024-02-26T12:59:36;1.67;;;0.95;;
84486;SDS011;74710;48.436;10.602;2024-02-26T13:02:03;4.53;;;1.15;;
84486;SDS011;74710;48.436;10.602;2024-02-26T13:04:33;2.33;;;0.90;;
84486;SDS011;74710;48.436;10.602;2024-02-26T13:07:02;4.28;;;1.08;;
84486;SDS011;74710;48.436;10.602;2024-02-26T13:09:34;1.92;;;0.82;;
84486;SDS011;74710;48.436;10.602;2024-02-26T13:12:04;3.60;;;1.10;;
84486;SDS011;74710;48.436;10.602;2024-02-26T13:14:37;3.20;;;1.63;;
84486;SDS011;74710;48.436;10.602;2024-02-26T13:17:04;4.60;;;1.95;;
84486;SDS011;74710;48.436;10.602;2024-02-26T13:19:31;5.28;;;1.60;;
84486;SDS011;74710;48.436;10.602;2024-02-26T13:22:05;3.90;;;1.63;;
84486;SDS011;74710;48.436;10.602;2024-02-26T13:24:33;4.38;;;1.70;;
84486;SDS011;74710;48.436;10.602;2024-02-26T13:27:00;3.13;;;1.10;;
84486;SDS011;74710;48.436;10.602;2024-02-26T13:29:33;3.42;;;1.58;;
84486;SDS011;74710;48.436;10.602;2024-02-26T13:32:00;3.45;;;1.63;;
84486;SDS011;74710;48.436;10.602;2024-02-26T13:34:27;5.10;;;1.30;;
84486;SDS011;74710;48.436;10.602;2024-02-26T13:36:56;4.75;;;1.33;;
84486;SDS011;74710;48.436;10.602;2024-02-26T13:39:27;3.67;;;1.55;;
84486;SDS011;74710;48.436;10.602;2024-02-26T13:41:54;3.15;;;1.27;;
84486;SDS011;74710;48.436;10.602;2024-02-26T13:44:21;3.92;;;1.00;;
84486;SDS011;74710;48.436;10.602;2024-02-26T13:46:48;4.22;;;1.52;;
84486;SDS011;74710;48.436;10.602;2024-02-26T13:49:15;4.55;;;1.67;;
84486;SDS011;74710;48.436;10.602;2024-02-26T13:51:42;2.67;;;1.15;;
84486;SDS011;74710;48.436;10.602;2024-02-26T13:54:11;3.90;;;1.40;;
84486;SDS011;74710;48.436;10.602;2024-02-26T13:56:37;3.63;;;1.50;;
84486;SDS011;74710;48.436;10.602;2024-02-26T13:59:04;3.83;;;1.40;;
84486;SDS011;74710;48.436;10.602;2024-02-26T14:01:32;3.92;;;1.30;;
84486;SDS011;74710;48.436;10.602;2024-02-26T14:04:00;3.60;;;1.30;;
84486;SDS011;74710;48.436;10.602;2024-02-26T14:06:29;5.65;;;1.60;;
84486;SDS011;74710;48.436;10.602;2024-02-26T14:08:57;3.05;;;1.23;;
84486;SDS011;74710;48.436;10.602;2024-02-26T14:11:27;2.95;;;1.35;;
84486;SDS011;74710;48.436;10.602;2024-02-26T14:13:55;2.15;;;1.10;;
84486;SDS011;74710;48.436;10.602;2024-02-26T14:16:22;3.00;;;0.98;;
84486;SDS011;74710;48.436;10.602;2024-02-26T14:18:48;2.38;;;1.13;;
84486;SDS011;74710;48.436;10.602;2024-02-26T14:21:15;2.90;;;1.60;;
84486;SDS011;74710;48.436;10.602;2024-02-26T14:23:44;17.33;;;4.55;;
84486;SDS011;74710;48.436;10.602;2024-02-26T14:26:11;31.40;;;9.88;;
84486;SDS011;74710;48.436;10.602;2024-02-26T14:28:38;20.98;;;6.15;;
84486;SDS011;74710;48.436;10.602;2024-02-26T14:31:05;26.00;;;8.32;;
84486;SDS011;74710;48.436;10.602;2024-02-26T14:33:33;90.38;;;25.88;;
84486;SDS011;74710;48.436;10.602;2024-02-26T14:36:01;31.40;;;10.65;;
84486;SDS011;74710;48.436;10.602;2024-02-26T14:38:28;11.77;;;4.00;;
84486;SDS011;74710;48.436;10.602;2024-02-26T14:40:55;7.75;;;2.42;;
84486;SDS011;74710;48.436;10.602;2024-02-26T14:43:22;4.18;;;1.77;;
84486;SDS011;74710;48.436;10.602;2024-02-26T14:45:53;3.72;;;1.50;;
84486;SDS011;74710;48.436;10.602;2024-02-26T14:48:23;4.55;;;1.63;;
84486;SDS011;74710;48.436;10.602;2024-02-26T14:50:50;8.35;;;3.42;;
84486;SDS011;74710;48.436;10.602;2024-02-26T14:53:17;4.82;;;1.67;;
84486;SDS011;74710;48.436;10.602;2024-02-26T14:55:47;26.33;;;9.52;;
84486;SDS011;74710;48.436;10.602;2024-02-26T14:58:13;7.53;;;3.05;;
84486;SDS011;74710;48.436;10.602;2024-02-26T15:00:40;5.75;;;1.50;;
84486;SDS011;74710;48.436;10.602;2024-02-26T15:03:07;4.45;;;2.30;;
84486;SDS011;74710;48.436;10.602;2024-02-26T15:05:35;28.75;;;9.18;;
84486;SDS011;74710;48.436;10.602;2024-02-26T15:08:01;16.65;;;6.40;;
84486;SDS011;74710;48.436;10.602;2024-02-26T15:10:31;12.90;;;6.13;;
84486;SDS011;74710;48.436;10.602;2024-02-26T15:12:58;10.25;;;4.28;;